createdAt,value
2023-05-21T00:01:31.364Z,14.77
2023-05-21T00:04:00.481Z,14.76
2023-05-21T00:06:29.632Z,14.75
2023-05-21T00:08:58.544Z,14.74
2023-05-21T00:11:28.134Z,14.70
2023-05-21T00:13:57.029Z,14.66
2023-05-21T00:16:27.517Z,14.60
2023-05-21T00:19:01.558Z,14.56
2023-05-21T00:21:33.386Z,14.53
2023-05-21T00:24:07.657Z,14.49
2023-05-21T00:26:43.533Z,14.42
2023-05-21T00:29:16.825Z,14.38
2023-05-21T00:31:50.734Z,14.34
2023-05-21T00:34:25.620Z,14.32
2023-05-21T00:36:58.473Z,14.30
2023-05-21T00:39:33.933Z,14.25
2023-05-21T00:42:05.629Z,14.22
2023-05-21T00:44:39.708Z,14.17
2023-05-21T00:47:10.349Z,14.13
2023-05-21T00:49:42.392Z,14.09
2023-05-21T00:52:12.521Z,14.04
2023-05-21T00:54:44.790Z,14.00
2023-05-21T00:57:15.757Z,13.98
2023-05-21T00:59:55.103Z,13.95
2023-05-21T01:02:25.563Z,13.93
2023-05-21T01:04:56.393Z,13.91
2023-05-21T01:07:25.285Z,13.87
2023-05-21T01:09:54.697Z,13.83
2023-05-21T01:12:24.159Z,13.78
2023-05-21T01:14:53.478Z,13.74
2023-05-21T01:17:24.690Z,13.70
2023-05-21T01:19:54.986Z,13.65
2023-05-21T01:22:25.475Z,13.60
2023-05-21T01:24:55.933Z,13.58
2023-05-21T01:27:24.703Z,13.57
2023-05-21T01:29:56.453Z,13.54
2023-05-21T01:32:28.542Z,13.52
2023-05-21T01:35:06.261Z,13.50
2023-05-21T01:37:48.564Z,13.48
2023-05-21T01:40:35.132Z,13.44
2023-05-21T01:43:06.669Z,13.37
2023-05-21T01:45:40.161Z,13.35
2023-05-21T01:48:10.062Z,13.33
2023-05-21T01:50:40.942Z,13.32
2023-05-21T01:53:10.006Z,13.31
2023-05-21T01:55:42.542Z,13.30
2023-05-21T01:58:11.330Z,13.29
2023-05-21T02:00:40.867Z,13.27
2023-05-21T02:03:09.527Z,13.24
2023-05-21T02:05:39.039Z,13.21
2023-05-21T02:08:09.593Z,13.16
2023-05-21T02:10:38.582Z,13.12
2023-05-21T02:13:08.166Z,13.10
2023-05-21T02:15:37.118Z,13.08
2023-05-21T02:18:05.876Z,13.06
2023-05-21T02:20:34.322Z,13.05
2023-05-21T02:23:03.082Z,13.05
2023-05-21T02:25:32.176Z,13.01
2023-05-21T02:28:01.266Z,12.97
2023-05-21T02:30:29.855Z,12.92
2023-05-21T02:32:59.138Z,12.90
2023-05-21T02:35:27.874Z,12.88
2023-05-21T02:37:59.689Z,12.83
2023-05-21T02:40:28.326Z,12.79
2023-05-21T02:42:56.949Z,12.76
2023-05-21T02:45:25.341Z,12.74
2023-05-21T02:47:53.778Z,12.73
2023-05-21T02:50:23.065Z,12.70
2023-05-21T02:52:52.584Z,12.68
2023-05-21T02:55:21.086Z,12.66
2023-05-21T02:57:49.472Z,12.64
2023-05-21T03:00:18.277Z,12.65
2023-05-21T03:02:47.196Z,12.64
2023-05-21T03:05:15.846Z,12.63
2023-05-21T03:07:44.178Z,12.61
2023-05-21T03:10:12.826Z,12.61
2023-05-21T03:12:41.181Z,12.60
2023-05-21T03:15:10.174Z,12.57
2023-05-21T03:17:38.689Z,12.53
2023-05-21T03:20:09.254Z,12.52
2023-05-21T03:22:37.840Z,12.52
2023-05-21T03:25:06.917Z,12.52
2023-05-21T03:27:35.601Z,12.53
2023-05-21T03:30:06.640Z,12.53
2023-05-21T03:32:38.238Z,12.53
2023-05-21T03:35:07.710Z,12.54
2023-05-21T03:37:36.186Z,12.54
2023-05-21T03:40:05.319Z,12.55
2023-05-21T03:42:33.646Z,12.58
2023-05-21T03:45:02.496Z,12.61
2023-05-21T03:47:31.456Z,12.64
2023-05-21T03:49:59.769Z,12.66
2023-05-21T03:52:28.429Z,12.67
2023-05-21T03:54:56.806Z,12.67
2023-05-21T03:57:25.304Z,12.67
2023-05-21T03:59:54.093Z,12.68
2023-05-21T04:02:23.371Z,12.67
2023-05-21T04:04:54.172Z,12.67
2023-05-21T04:07:23.362Z,12.69
2023-05-21T04:09:51.904Z,12.72
2023-05-21T04:12:23.135Z,12.75
2023-05-21T04:14:51.980Z,12.78
2023-05-21T04:17:21.308Z,12.82
2023-05-21T04:19:49.726Z,12.87
2023-05-21T04:22:18.133Z,12.91
2023-05-21T04:24:46.787Z,12.98
2023-05-21T04:27:16.930Z,13.02
2023-05-21T04:29:45.584Z,13.06
2023-05-21T04:32:15.425Z,13.10
2023-05-21T04:34:44.802Z,13.15
2023-05-21T04:37:13.155Z,13.21
2023-05-21T04:39:41.540Z,13.26
2023-05-21T04:42:11.348Z,13.32
2023-05-21T04:44:40.627Z,13.35
2023-05-21T04:47:09.202Z,13.39
2023-05-21T04:49:37.665Z,13.43
2023-05-21T04:52:06.157Z,13.48
2023-05-21T04:54:36.827Z,13.53
2023-05-21T04:57:07.187Z,13.58
2023-05-21T04:59:36.172Z,13.64
2023-05-21T05:02:04.496Z,13.70
2023-05-21T05:04:33.014Z,13.76
2023-05-21T05:07:01.822Z,13.82
2023-05-21T05:09:32.008Z,13.88
2023-05-21T05:12:01.333Z,13.95
2023-05-21T05:14:30.105Z,14.02
2023-05-21T05:17:00.998Z,14.12
2023-05-21T05:19:30.485Z,14.22
2023-05-21T05:21:59.006Z,14.33
2023-05-21T05:24:27.347Z,14.42
2023-05-21T05:26:56.149Z,14.51
2023-05-21T05:29:25.608Z,14.61
2023-05-21T05:31:54.835Z,14.69
2023-05-21T05:34:24.019Z,14.77
2023-05-21T05:36:52.481Z,14.86
2023-05-21T05:39:21.005Z,14.96
2023-05-21T05:41:50.041Z,15.05
2023-05-21T05:44:18.837Z,15.13
2023-05-21T05:46:47.512Z,15.22
2023-05-21T05:49:16.015Z,15.30
2023-05-21T05:51:45.086Z,15.38
2023-05-21T05:54:14.969Z,15.48
2023-05-21T05:56:50.288Z,15.58
2023-05-21T05:59:22.682Z,15.68
2023-05-21T07:28:51.719Z,19.04
2023-05-21T07:31:20.289Z,19.14
2023-05-21T07:33:48.753Z,19.17
2023-05-21T07:36:17.201Z,19.23
2023-05-21T07:38:45.745Z,19.34
2023-05-21T07:41:15.031Z,19.46
2023-05-21T07:43:44.388Z,19.56
2023-05-21T07:46:12.730Z,19.60
2023-05-21T07:48:42.114Z,19.71
2023-05-21T07:52:30.588Z,19.76
2023-05-21T07:56:23.679Z,19.92
2023-05-21T08:14:43.733Z,20.51
2023-05-21T08:17:12.366Z,20.64
2023-05-21T08:19:40.867Z,20.77
2023-05-21T08:38:17.136Z,21.29
2023-05-21T09:09:02.296Z,22.59
2023-05-21T09:11:29.539Z,22.49
2023-05-21T09:13:58.690Z,22.64
2023-05-21T09:16:25.837Z,22.74
2023-05-21T09:18:52.828Z,22.95
2023-05-21T09:21:31.353Z,23.24
2023-05-21T09:24:02.726Z,23.51
2023-05-21T09:26:29.884Z,23.69
2023-05-21T09:28:59.523Z,23.96
2023-05-21T09:31:26.883Z,24.07
2023-05-21T09:33:55.438Z,23.77
2023-05-21T09:36:22.860Z,23.64
2023-05-21T09:38:52.108Z,23.71
2023-05-21T09:41:22.092Z,23.96
2023-05-21T09:43:49.857Z,24.07
2023-05-21T09:46:26.909Z,24.23
2023-05-21T09:48:54.110Z,24.16
2023-05-21T09:51:21.301Z,24.24
2023-05-21T09:54:06.280Z,24.36
2023-05-21T09:56:35.010Z,24.57
2023-05-21T09:59:07.051Z,24.72
2023-05-21T10:01:42.032Z,24.52
2023-05-21T10:04:11.354Z,24.23
2023-05-21T10:06:44.348Z,24.33
2023-05-21T10:09:15.661Z,24.40
2023-05-21T10:11:45.216Z,24.32
2023-05-21T10:14:26.541Z,24.36
2023-05-21T10:16:56.271Z,24.50
2023-05-21T10:19:26.022Z,24.73
2023-05-21T10:21:55.875Z,24.79
2023-05-21T10:24:25.489Z,24.89
2023-05-21T10:26:54.523Z,25.08
2023-05-21T10:29:23.836Z,24.95
2023-05-21T10:31:53.308Z,24.67
2023-05-21T10:34:25.076Z,24.54
2023-05-21T10:36:55.894Z,24.59
2023-05-21T10:39:26.046Z,24.73
2023-05-21T10:42:17.561Z,24.98
2023-05-21T10:45:04.557Z,25.14
2023-05-21T10:47:55.074Z,25.29
2023-05-21T10:50:41.562Z,25.24
2023-05-21T10:53:53.704Z,25.15
2023-05-21T10:56:37.947Z,25.09
2023-05-21T10:59:24.705Z,25.35
2023-05-21T11:01:54.762Z,25.62
2023-05-21T11:04:24.163Z,25.66
2023-05-21T11:06:52.626Z,25.25
2023-05-21T11:09:21.247Z,24.86
2023-05-21T11:12:14.522Z,24.79
2023-05-21T11:18:49.143Z,25.39
2023-05-21T11:21:52.337Z,25.72
2023-05-21T11:25:00.289Z,25.70
2023-05-21T11:27:43.338Z,25.65
2023-05-21T11:30:19.838Z,25.75
2023-05-21T11:33:11.585Z,25.96
2023-05-21T11:35:45.917Z,26.21
2023-05-21T11:38:17.165Z,25.87
2023-05-21T11:40:56.886Z,25.67
2023-05-21T11:43:27.628Z,25.55
2023-05-21T11:45:56.583Z,25.72
2023-05-21T11:48:27.377Z,26.08
2023-05-21T11:50:57.803Z,26.21
2023-05-21T11:53:26.382Z,26.25
2023-05-21T11:55:57.905Z,26.51
2023-05-21T11:58:26.939Z,26.84
2023-05-21T12:00:55.454Z,26.81
2023-05-21T12:03:27.500Z,26.51
2023-05-21T12:06:06.554Z,26.19
2023-05-21T12:08:36.092Z,26.04
2023-05-21T12:11:05.038Z,25.57
2023-05-21T12:13:33.835Z,25.06
2023-05-21T12:16:05.879Z,24.90
2023-05-21T12:18:37.156Z,25.24
2023-05-21T12:21:05.777Z,25.58
2023-05-21T12:23:34.600Z,25.88
2023-05-21T12:26:03.809Z,26.39
2023-05-21T12:28:32.908Z,26.55
2023-05-21T12:31:01.627Z,26.53
2023-05-21T12:33:36.250Z,26.72
2023-05-21T12:36:05.328Z,26.82
2023-05-21T12:38:34.125Z,26.80
2023-05-21T12:41:06.942Z,26.94
2023-05-21T12:43:35.446Z,27.09
2023-05-21T12:46:04.333Z,27.19
2023-05-21T12:57:07.459Z,26.93
2023-05-21T13:00:13.494Z,27.06
2023-05-21T13:10:30.036Z,26.51
2023-05-21T13:13:00.597Z,26.36
2023-05-21T13:15:31.937Z,26.35
2023-05-21T13:18:02.037Z,26.56
2023-05-21T13:26:56.638Z,27.41
2023-05-21T13:29:31.921Z,27.36
2023-05-21T13:32:35.823Z,27.36
2023-05-21T13:35:22.895Z,27.38
2023-05-21T13:45:54.984Z,27.03
2023-05-21T13:48:25.935Z,27.00
2023-05-21T13:51:07.960Z,26.91
2023-05-21T13:53:58.263Z,26.85
2023-05-21T13:58:18.571Z,26.52
2023-05-21T14:00:31.431Z,26.50
2023-05-21T14:04:06.553Z,26.27
2023-05-21T14:08:00.334Z,26.25
2023-05-21T14:10:30.988Z,26.37
2023-05-21T14:13:34.655Z,26.51
2023-05-21T14:20:29.724Z,26.22
2023-05-21T14:23:20.556Z,25.91
2023-05-21T14:25:48.916Z,25.83
2023-05-21T14:28:17.217Z,25.90
2023-05-21T14:30:46.051Z,26.03
2023-05-21T14:33:14.408Z,25.95
2023-05-21T14:35:44.459Z,25.85
2023-05-21T14:38:12.928Z,25.94
2023-05-21T14:40:41.325Z,26.01
2023-05-21T14:43:09.981Z,26.01
2023-05-21T14:45:38.513Z,25.97
2023-05-21T14:48:09.070Z,25.78
2023-05-21T14:50:40.661Z,25.55
2023-05-21T14:53:10.983Z,25.44
2023-05-21T14:55:39.703Z,25.44
2023-05-21T14:58:08.455Z,25.27
2023-05-21T15:00:45.326Z,25.08
2023-05-21T15:03:13.843Z,24.93
2023-05-21T15:05:42.285Z,24.63
2023-05-21T15:08:10.710Z,24.42
2023-05-21T15:10:39.049Z,24.37
2023-05-21T15:13:07.446Z,24.40
2023-05-21T15:15:36.191Z,24.31
2023-05-21T15:18:04.934Z,24.22
2023-05-21T15:20:33.285Z,24.14
2023-05-21T15:25:33.304Z,23.78
2023-05-21T15:28:01.682Z,23.70
2023-05-21T15:30:30.019Z,23.70
2023-05-21T15:32:58.373Z,23.67
2023-05-21T15:35:26.951Z,23.67
2023-05-21T15:37:55.363Z,23.64
2023-05-21T15:40:26.154Z,23.46
2023-05-21T15:42:55.220Z,23.30
2023-05-21T15:45:25.556Z,23.21
2023-05-21T15:47:53.805Z,23.10
2023-05-21T15:50:22.091Z,23.03
2023-05-21T15:52:53.130Z,22.95
2023-05-21T15:55:22.106Z,22.85
2023-05-21T15:57:50.665Z,22.79
2023-05-21T16:00:19.006Z,22.79
2023-05-21T16:02:47.418Z,22.80
2023-05-21T16:05:16.215Z,22.77
2023-05-21T16:07:55.619Z,22.73
2023-05-21T16:10:29.440Z,22.66
2023-05-21T16:13:05.528Z,22.55
2023-05-21T16:15:45.167Z,22.53
2023-05-21T16:18:53.663Z,22.54
2023-05-21T16:21:32.515Z,22.55
2023-05-21T16:24:03.427Z,22.52
2023-05-21T16:29:25.621Z,22.40
2023-05-21T16:31:57.386Z,22.34
2023-05-21T16:34:45.302Z,22.25
2023-05-21T16:37:13.797Z,22.18
2023-05-21T16:39:57.402Z,22.12
2023-05-21T16:42:28.475Z,22.03
2023-05-21T16:44:57.001Z,21.96
2023-05-21T16:47:25.642Z,21.88
2023-05-21T16:50:00.209Z,21.82
2023-05-21T16:52:28.885Z,21.76
2023-05-21T16:54:57.501Z,21.73
2023-05-21T16:57:30.670Z,21.73
2023-05-21T17:00:00.280Z,21.73
2023-05-21T17:02:29.079Z,21.74
2023-05-21T17:04:58.306Z,21.71
2023-05-21T17:07:29.262Z,21.66
2023-05-21T17:09:58.745Z,21.62
2023-05-21T17:12:27.245Z,21.57
2023-05-21T17:14:55.807Z,21.51
2023-05-21T17:17:25.450Z,21.44
2023-05-21T17:19:57.308Z,21.39
2023-05-21T17:22:26.278Z,21.34
2023-05-21T17:24:54.811Z,21.26
2023-05-21T17:27:23.211Z,21.19
2023-05-21T17:29:51.955Z,21.13
2023-05-21T17:32:21.366Z,21.09
2023-05-21T17:34:49.810Z,21.04
2023-05-21T17:37:18.233Z,20.96
2023-05-21T17:39:46.730Z,20.88
2023-05-21T17:42:16.250Z,20.81
2023-05-21T17:44:48.383Z,20.74
2023-05-21T17:47:19.912Z,20.68
2023-05-21T17:49:48.759Z,20.63
2023-05-21T17:52:17.796Z,20.56
2023-05-21T17:54:46.482Z,20.49
2023-05-21T17:57:16.528Z,20.41
2023-05-21T17:59:45.883Z,20.31
2023-05-21T18:02:14.461Z,20.20
2023-05-21T18:04:43.040Z,20.13
2023-05-21T18:07:11.570Z,20.05
2023-05-21T18:09:40.177Z,19.97
2023-05-21T18:12:08.814Z,19.85
2023-05-21T18:14:42.649Z,19.75
2023-05-21T18:17:11.230Z,19.67
2023-05-21T18:19:39.995Z,19.56
2023-05-21T18:22:08.614Z,19.46
2023-05-21T18:24:38.582Z,19.37
2023-05-21T18:27:09.509Z,19.29
2023-05-21T18:29:38.028Z,19.19
2023-05-21T18:32:07.238Z,19.12
2023-05-21T18:34:35.848Z,19.04
2023-05-21T18:37:05.305Z,18.94
2023-05-21T18:39:36.605Z,18.86
2023-05-21T18:42:13.037Z,18.79
2023-05-21T18:44:51.741Z,18.70
2023-05-21T18:47:20.283Z,18.61
2023-05-21T18:49:48.819Z,18.53
2023-05-21T18:52:47.501Z,18.45
2023-05-21T18:58:10.536Z,18.35
2023-05-21T19:03:12.205Z,18.13
2023-05-21T19:05:40.844Z,18.00
2023-05-21T19:08:09.337Z,17.89
2023-05-21T19:10:39.525Z,17.82
2023-05-21T19:13:08.259Z,17.78
2023-05-21T19:15:37.673Z,17.76
2023-05-21T19:22:00.575Z,17.68
2023-05-21T19:24:29.020Z,17.63
2023-05-21T19:26:59.561Z,17.59
2023-05-21T19:29:28.930Z,17.57
2023-05-21T19:37:09.979Z,17.51
2023-05-21T19:39:58.193Z,17.49
2023-05-21T19:42:27.237Z,17.46
2023-05-21T19:45:01.782Z,17.42
2023-05-21T19:47:31.053Z,17.40
2023-05-21T19:50:03.840Z,17.36
2023-05-21T19:52:32.559Z,17.34
2023-05-21T19:55:06.184Z,17.30
2023-05-21T19:57:35.104Z,17.26
2023-05-21T20:00:05.081Z,17.23
2023-05-21T20:02:36.807Z,17.19
2023-05-21T20:05:05.611Z,17.14
2023-05-21T20:08:26.984Z,17.10
2023-05-21T20:10:55.795Z,17.05
2023-05-21T20:17:30.755Z,16.97
2023-05-21T20:21:00.323Z,16.87
2023-05-21T20:23:57.731Z,16.70
2023-05-21T20:27:34.715Z,16.54
2023-05-21T20:34:21.085Z,16.33
2023-05-21T20:37:58.426Z,16.26
2023-05-21T20:41:36.528Z,16.18
2023-05-21T20:44:51.035Z,16.10
2023-05-21T20:52:47.422Z,15.95
2023-05-21T20:55:17.286Z,15.91
2023-05-21T20:58:40.251Z,15.88
2023-05-21T21:01:58.742Z,15.86
2023-05-21T21:05:01.621Z,15.83
2023-05-21T21:08:01.295Z,15.79
2023-05-21T21:10:48.196Z,15.76
2023-05-21T21:13:17.258Z,15.73
2023-05-21T21:15:46.005Z,15.69
2023-05-21T21:18:14.636Z,15.63
2023-05-21T21:20:43.331Z,15.57
2023-05-21T21:23:11.647Z,15.54
2023-05-21T21:25:40.040Z,15.52
2023-05-21T21:28:08.584Z,15.48
2023-05-21T21:30:40.003Z,15.47
2023-05-21T21:33:08.835Z,15.45
2023-05-21T21:35:39.927Z,15.43
2023-05-21T21:38:08.815Z,15.40
2023-05-21T21:40:37.324Z,15.38
2023-05-21T21:43:05.866Z,15.36
2023-05-21T21:45:34.335Z,15.34
2023-05-21T21:48:02.864Z,15.32
2023-05-21T21:50:31.433Z,15.30
2023-05-21T21:53:00.167Z,15.28
2023-05-21T21:55:29.945Z,15.26
2023-05-21T21:57:58.462Z,15.22
2023-05-21T22:00:27.019Z,15.18
2023-05-21T22:02:55.553Z,15.15
2023-05-21T22:05:24.262Z,15.13
2023-05-21T22:07:52.853Z,15.10
2023-05-21T22:10:21.559Z,15.07
2023-05-21T22:12:52.460Z,15.05
2023-05-21T22:15:29.017Z,15.01
2023-05-21T22:17:57.487Z,14.98
2023-05-21T22:20:33.512Z,14.93
2023-05-21T22:23:01.979Z,14.90
2023-05-21T22:25:30.966Z,14.86
2023-05-21T22:27:59.400Z,14.83
2023-05-21T22:30:27.992Z,14.79
2023-05-21T22:32:57.204Z,14.77
2023-05-21T22:35:25.980Z,14.75
2023-05-21T22:37:54.353Z,14.73
2023-05-21T22:40:22.776Z,14.72
2023-05-21T22:42:51.898Z,14.70
2023-05-21T22:45:21.954Z,14.67
2023-05-21T22:47:52.237Z,14.64
2023-05-21T22:50:20.989Z,14.62
2023-05-21T22:52:49.620Z,14.59
2023-05-21T22:55:18.277Z,14.56
2023-05-21T22:57:46.970Z,14.51
2023-05-21T23:00:19.399Z,14.47
2023-05-21T23:02:49.417Z,14.44
2023-05-21T23:05:18.788Z,14.43
2023-05-21T23:07:47.156Z,14.40
2023-05-21T23:10:15.931Z,14.37
2023-05-21T23:12:44.461Z,14.35
2023-05-21T23:15:13.006Z,14.32
2023-05-21T23:17:41.448Z,14.30
2023-05-21T23:20:10.948Z,14.27
2023-05-21T23:22:39.382Z,14.24
2023-05-21T23:25:08.573Z,14.20
2023-05-21T23:27:36.919Z,14.16
2023-05-21T23:30:06.048Z,14.13
2023-05-21T23:32:34.661Z,14.11
2023-05-21T23:35:02.995Z,14.10
2023-05-21T23:37:31.475Z,14.09
2023-05-21T23:39:59.810Z,14.07
2023-05-21T23:42:28.310Z,14.04
2023-05-21T23:44:56.735Z,14.01
2023-05-21T23:47:25.735Z,14.00
2023-05-21T23:49:54.128Z,14.02
2023-05-21T23:52:24.389Z,14.02
2023-05-21T23:54:52.895Z,14.01
2023-05-21T23:57:21.257Z,14.01
2023-05-21T23:59:49.634Z,13.99
